Bullville, NY (10915)

9:14 PM EDT on March 25, 2017 (GMT -0400)
Circleville Woods | | Change Station

Elev 732 ft 41.51 °N, 74.39 °W | Updated 11 seconds ago

Overcast
Overcast
35.6 °F
Feels Like 36 °F
N
1.8
Wind Variable Wind from SE
Gusts 2.5 mph

Today
High -- | Low -- °F
--% Chance of Precip.
Yesterday
High -- | Low -- °F
Precip. -- in
Pressure 30.37 in
Visibility 10.0 miles
Clouds Overcast 3000 ft
Windchill 36 °F
Dew Point 34 °F
Humidity 96%
Rainfall 0.00 in
Snow Depth Not available.
6:51 AM 7:15 PM
Waning Crescent, 5% visible
SPECI KMGJ 260102Z AUTO 04007KT 10SM OVC030 03/01 A3037 RMK AO2 T00280006 TSNO
Pressure 30.37 in
Visibility 10.0 miles
Clouds Overcast 3000 ft
Windchill 36 °F
Dew Point 34 °F
Humidity 96%
Rainfall 0.00 in
Snow Depth Not available.
6:51 AM 7:15 PM
Waning Crescent, 5% visible
SPECI KMGJ 260102Z AUTO 04007KT 10SM OVC030 03/01 A3037 RMK AO2 T00280006 TSNO

Get Severe Weather Alerts

Thanks for signing up!

Be on the lookout for a verification email in your inbox.

You'll start receiving the daily forecast at 8 AM.

×

10-Day Weather Forecast

Almanac

Astronomy

Mar. 25, 2017 Rise Set
Actual Time
Civil Twilight
Nautical Twilight
Astronomical Twilight
Moon
Length of Visible Light
Length of Day
Tomorrow will be .
, % of the Moon is Illuminated

Today's Extremes

State Highs State Lows

Community

WunderPhotos

Upload Photos

1,962,540 photos uploaded!

WunderBlog® & News

Nearby

Air Quality

  Air Quality AQ Index Pollutant
Not available.

Snow Depth

Station Depth Elevation

Earthquake Activity

City Distance Mag. Time & Date
Minimum magnitude displayed is 2.5.

Earthquake Activity

City Distance Mag. Time & Date
Minimum magnitude displayed is 2.5.

Coastal Water Temperatures

Place Temperature

Stations

Nearby Weather Stations

Station Location Temp. Windchill Dew Point Humidity Wind Precip. Elev Updated Type
                   

Watches & Warnings

There are currently no watches in effect.